createdAt,value
2022-08-19T00:01:00.286Z,56.01
2022-08-19T00:06:04.475Z,56.09
2022-08-19T00:11:08.503Z,56.19
2022-08-19T00:16:22.789Z,56.28
2022-08-19T00:21:29.913Z,56.37
2022-08-19T00:26:32.837Z,56.35
2022-08-19T00:31:36.783Z,56.47
2022-08-19T00:36:41.044Z,56.61
2022-08-19T00:41:47.843Z,56.77
2022-08-19T00:46:58.290Z,56.85
2022-08-19T00:52:15.174Z,56.96
2022-08-19T00:57:23.543Z,57.19
2022-08-19T01:02:28.732Z,57.17
2022-08-19T01:07:37.635Z,57.30
2022-08-19T01:12:42.155Z,57.44
2022-08-19T01:17:46.045Z,57.53
2022-08-19T01:22:53.297Z,57.66
2022-08-19T01:27:56.917Z,57.72
2022-08-19T01:33:07.079Z,57.89
2022-08-19T01:38:22.514Z,58.13
2022-08-19T01:43:25.373Z,58.16
2022-08-19T01:48:30.379Z,58.12
2022-08-19T01:53:33.887Z,58.08
2022-08-19T01:58:46.175Z,58.13
2022-08-19T02:03:49.423Z,58.11
2022-08-19T02:08:52.450Z,58.31
2022-08-19T02:14:03.278Z,58.35
2022-08-19T02:19:06.305Z,58.48
2022-08-19T02:24:09.141Z,58.34
2022-08-19T02:29:12.156Z,58.50
2022-08-19T02:34:15.284Z,58.63
2022-08-19T02:39:18.988Z,58.71
2022-08-19T02:44:31.309Z,58.82
2022-08-19T02:49:35.000Z,58.79
2022-08-19T02:54:39.427Z,58.75
2022-08-19T02:59:42.420Z,58.76
2022-08-19T03:04:45.667Z,58.81
2022-08-19T03:09:48.550Z,58.89
2022-08-19T03:14:52.172Z,58.98
2022-08-19T03:19:55.079Z,59.11
2022-08-19T03:24:58.014Z,59.32
2022-08-19T03:30:01.016Z,59.48
2022-08-19T03:35:04.328Z,59.61
2022-08-19T03:40:07.875Z,59.60
2022-08-19T03:45:17.332Z,59.61
2022-08-19T03:50:20.758Z,59.60
2022-08-19T03:55:23.716Z,59.75
2022-08-19T04:00:27.107Z,59.75
2022-08-19T04:05:30.353Z,59.93
2022-08-19T04:10:39.537Z,60.07
2022-08-19T04:15:44.171Z,59.94
2022-08-19T04:20:48.654Z,60.06
2022-08-19T04:25:51.750Z,60.08
2022-08-19T04:30:55.942Z,60.12
2022-08-19T04:35:59.348Z,60.05
2022-08-19T04:41:22.576Z,60.15
2022-08-19T04:46:40.103Z,60.17
2022-08-19T04:51:50.857Z,60.29
2022-08-19T04:56:54.509Z,60.40
2022-08-19T05:01:57.382Z,60.47
2022-08-19T05:07:02.381Z,60.78
2022-08-19T05:12:07.127Z,61.26
2022-08-19T05:22:34.021Z,61.73
2022-08-19T05:27:37.183Z,61.52
2022-08-19T05:32:41.073Z,61.24
2022-08-19T05:37:44.075Z,61.08
2022-08-19T05:42:47.166Z,60.50
2022-08-19T05:47:59.548Z,60.39
2022-08-19T05:53:02.541Z,60.22
2022-08-19T05:58:08.675Z,60.09
2022-08-19T06:03:13.449Z,60.00
2022-08-19T06:08:19.618Z,59.86
2022-08-19T06:13:23.745Z,59.90
2022-08-19T06:18:26.696Z,59.85
2022-08-19T06:23:30.565Z,59.90
2022-08-19T06:28:34.548Z,59.77
2022-08-19T06:33:38.387Z,59.71
2022-08-19T06:38:41.754Z,59.62
2022-08-19T06:43:45.367Z,59.69
2022-08-19T06:48:49.194Z,59.57
2022-08-19T06:53:54.623Z,59.49
2022-08-19T06:58:59.584Z,59.59
2022-08-19T07:04:03.439Z,59.53
2022-08-19T07:09:08.394Z,59.57
2022-08-19T07:14:19.153Z,59.56
2022-08-19T07:19:28.158Z,59.24
2022-08-19T07:24:33.614Z,59.05
2022-08-19T07:29:38.114Z,58.91
2022-08-19T07:34:41.536Z,58.80
2022-08-19T07:39:45.947Z,58.58
2022-08-19T07:44:50.303Z,58.54
2022-08-19T07:49:53.873Z,58.26
2022-08-19T07:54:56.805Z,58.27
2022-08-19T08:00:00.333Z,58.52
2022-08-19T08:05:22.589Z,58.38
2022-08-19T08:10:26.311Z,58.21
2022-08-19T08:15:29.723Z,57.93
2022-08-19T08:20:33.161Z,57.51
2022-08-19T08:25:37.399Z,57.28
2022-08-19T08:30:45.249Z,57.10
2022-08-19T08:35:49.091Z,57.13
2022-08-19T08:41:00.219Z,57.03
2022-08-19T08:46:12.303Z,56.71
2022-08-19T08:51:31.864Z,56.46
2022-08-19T08:56:40.938Z,56.48
2022-08-19T09:01:44.451Z,56.01
2022-08-19T09:07:18.005Z,55.90
2022-08-19T09:12:26.803Z,55.73
2022-08-19T09:17:32.213Z,55.41
2022-08-19T09:22:37.124Z,55.28
2022-08-19T09:27:44.075Z,54.97
2022-08-19T09:32:47.141Z,54.73
2022-08-19T09:37:59.600Z,54.47
2022-08-19T09:43:11.389Z,54.08
2022-08-19T09:48:19.101Z,53.60
2022-08-19T09:53:27.670Z,53.44
2022-08-19T09:58:32.391Z,53.52
2022-08-19T10:03:37.093Z,52.90
2022-08-19T10:08:40.950Z,52.97
2022-08-19T10:13:53.848Z,52.39
2022-08-19T10:18:59.107Z,52.15
2022-08-19T10:24:05.440Z,51.49
2022-08-19T10:29:09.285Z,50.99
2022-08-19T10:34:27.081Z,50.76
2022-08-19T10:39:32.870Z,50.18
2022-08-19T10:44:47.857Z,49.72
2022-08-19T10:50:11.757Z,49.17
2022-08-19T10:55:33.482Z,48.91
2022-08-19T11:00:36.343Z,48.80
2022-08-19T11:05:41.077Z,48.75
2022-08-19T11:10:50.305Z,48.60
2022-08-19T11:16:11.762Z,48.47
2022-08-19T11:21:14.979Z,47.96
2022-08-19T11:26:19.829Z,47.64
2022-08-19T11:31:29.438Z,47.44
2022-08-19T11:36:35.961Z,47.20
2022-08-19T11:41:39.008Z,46.89
2022-08-19T11:46:47.144Z,46.57
2022-08-19T11:51:51.785Z,46.66
2022-08-19T11:56:57.235Z,46.28
2022-08-19T12:02:00.307Z,46.15
2022-08-19T12:07:04.419Z,45.70
2022-08-19T12:12:07.670Z,45.77
2022-08-19T12:17:12.512Z,45.65
2022-08-19T12:22:16.898Z,45.31
2022-08-19T12:27:20.320Z,44.41
2022-08-19T12:32:38.332Z,44.01
2022-08-19T12:37:43.366Z,43.91
2022-08-19T12:42:46.674Z,43.60
2022-08-19T12:47:50.672Z,42.91
2022-08-19T12:52:59.198Z,43.52
2022-08-19T12:58:04.578Z,43.33
2022-08-19T13:03:07.736Z,42.74
2022-08-19T13:08:10.668Z,42.22
2022-08-19T13:13:13.662Z,42.29
2022-08-19T13:18:16.989Z,42.01
2022-08-19T13:23:19.920Z,41.72
2022-08-19T13:28:22.886Z,40.77
2022-08-19T13:33:34.228Z,40.54
2022-08-19T13:38:37.502Z,40.62
2022-08-19T13:43:40.533Z,40.25
2022-08-19T13:48:44.039Z,40.02
2022-08-19T13:53:48.145Z,39.84
2022-08-19T13:58:51.374Z,39.62
2022-08-19T14:03:54.483Z,39.25
2022-08-19T14:08:57.428Z,38.91
2022-08-19T14:14:00.567Z,38.77
2022-08-19T14:19:04.143Z,38.78
2022-08-19T14:24:07.645Z,38.59
2022-08-19T14:29:10.522Z,38.32
2022-08-19T14:34:13.887Z,38.22
2022-08-19T14:39:16.788Z,38.03
2022-08-19T14:44:19.618Z,37.77
2022-08-19T14:49:31.938Z,37.77
2022-08-19T14:54:38.607Z,37.64
2022-08-19T14:59:42.353Z,37.42
2022-08-19T15:04:45.342Z,37.63
2022-08-19T15:09:51.850Z,37.90
2022-08-19T15:14:56.861Z,38.26
2022-08-19T15:20:00.880Z,38.57
2022-08-19T15:25:06.785Z,38.67
2022-08-19T15:30:11.529Z,39.37
2022-08-19T15:35:14.595Z,39.58
2022-08-19T15:40:17.769Z,39.76
2022-08-19T15:45:22.571Z,40.08
2022-08-19T15:50:25.920Z,40.42
2022-08-19T15:55:35.179Z,40.81
2022-08-19T16:00:56.884Z,41.23
2022-08-19T16:06:19.280Z,41.42
2022-08-19T16:11:29.284Z,41.54
2022-08-19T16:16:34.461Z,41.73
2022-08-19T16:21:39.726Z,41.85
2022-08-19T16:26:45.730Z,41.97
2022-08-19T16:31:49.962Z,42.02
2022-08-19T16:36:52.890Z,42.20
2022-08-19T16:41:56.273Z,42.40
2022-08-19T16:47:00.382Z,42.43
2022-08-19T16:52:06.107Z,42.67
2022-08-19T16:57:08.960Z,42.75
2022-08-19T17:02:14.909Z,42.95
2022-08-19T17:07:17.896Z,43.03
2022-08-19T17:12:20.859Z,43.27
2022-08-19T17:17:28.740Z,43.39
2022-08-19T17:22:32.271Z,43.40
2022-08-19T17:27:35.260Z,43.53
2022-08-19T17:32:38.384Z,43.82
2022-08-19T17:37:42.641Z,44.05
2022-08-19T17:42:45.638Z,44.40
2022-08-19T17:47:48.665Z,44.41
2022-08-19T17:52:52.565Z,44.51
2022-08-19T17:57:55.569Z,44.74
2022-08-19T18:03:03.230Z,44.88
2022-08-19T18:08:10.736Z,45.17
2022-08-19T18:13:17.666Z,44.95
2022-08-19T18:18:21.473Z,45.31
2022-08-19T18:23:44.355Z,45.60
2022-08-19T18:28:50.043Z,45.87
2022-08-19T18:33:53.157Z,46.07
2022-08-19T18:39:14.978Z,46.50
2022-08-19T18:44:37.840Z,46.57
2022-08-19T18:49:40.961Z,46.81
2022-08-19T18:54:47.188Z,46.99
2022-08-19T18:59:52.149Z,47.03
2022-08-19T19:04:56.183Z,46.84
2022-08-19T19:09:59.058Z,46.73
2022-08-19T19:15:05.934Z,46.66
2022-08-19T19:20:10.025Z,46.67
2022-08-19T19:25:13.666Z,46.76
2022-08-19T19:30:16.803Z,46.69
2022-08-19T19:35:19.710Z,46.95
2022-08-19T19:40:22.808Z,47.31
2022-08-19T19:45:26.324Z,47.48
2022-08-19T19:50:30.318Z,47.81
2022-08-19T19:55:33.259Z,48.22
2022-08-19T20:00:36.597Z,48.48
2022-08-19T20:05:39.560Z,48.82
2022-08-19T20:10:43.881Z,49.02
2022-08-19T20:15:46.855Z,49.36
2022-08-19T20:20:51.012Z,49.40
2022-08-19T20:25:54.558Z,49.77
2022-08-19T20:30:58.095Z,50.01
2022-08-19T20:36:01.844Z,50.08
2022-08-19T20:41:05.951Z,50.24
2022-08-19T20:46:09.499Z,50.47
2022-08-19T20:51:13.659Z,50.60
2022-08-19T20:56:16.550Z,51.08
2022-08-19T21:01:19.447Z,51.17
2022-08-19T21:06:23.246Z,51.48
2022-08-19T21:11:26.171Z,51.78
2022-08-19T21:16:29.217Z,52.06
2022-08-19T21:21:33.347Z,52.51
2022-08-19T21:26:36.228Z,52.87
2022-08-19T21:31:39.384Z,53.19
2022-08-19T21:36:42.303Z,53.37
2022-08-19T21:41:45.205Z,53.43
2022-08-19T21:46:50.440Z,53.61
2022-08-19T21:51:53.675Z,53.69
2022-08-19T21:56:56.689Z,53.80
2022-08-19T22:02:15.629Z,53.74
2022-08-19T22:07:22.808Z,53.93
2022-08-19T22:12:29.768Z,53.94
2022-08-19T22:17:33.393Z,54.23
2022-08-19T22:22:38.050Z,54.45
2022-08-19T22:27:40.904Z,54.78
2022-08-19T22:32:46.603Z,54.99
2022-08-19T22:37:51.776Z,55.16
2022-08-19T22:43:03.549Z,55.43
2022-08-19T22:48:09.222Z,55.69
2022-08-19T22:53:12.394Z,56.12
2022-08-19T22:58:15.313Z,56.45
2022-08-19T23:03:31.144Z,56.69
2022-08-19T23:08:34.214Z,56.57
2022-08-19T23:13:39.552Z,56.94
2022-08-19T23:18:42.422Z,57.16
2022-08-19T23:23:45.785Z,57.16
2022-08-19T23:29:07.620Z,57.31
2022-08-19T23:34:11.134Z,57.32
2022-08-19T23:39:13.997Z,57.31
2022-08-19T23:44:18.399Z,57.30
2022-08-19T23:49:21.312Z,57.47
2022-08-19T23:54:34.309Z,57.56
2022-08-19T23:59:46.909Z,57.62
